createdAt,value
2023-05-21T00:01:10.195Z,14.77
2023-05-21T00:04:16.896Z,12.85
2023-05-21T00:07:22.653Z,11.40
2023-05-21T00:10:31.713Z,12.07
2023-05-21T00:13:40.006Z,12.35
2023-05-21T00:16:48.364Z,14.77
2023-05-21T00:19:54.678Z,18.77
2023-05-21T00:23:03.864Z,12.13
2023-05-21T00:26:08.560Z,14.87
2023-05-21T00:29:16.209Z,16.35
2023-05-21T00:32:21.212Z,13.88
2023-05-21T00:35:26.005Z,12.95
2023-05-21T00:38:35.022Z,10.52
2023-05-21T00:41:44.868Z,11.60
2023-05-21T00:44:51.972Z,12.32
2023-05-21T00:47:59.659Z,11.85
2023-05-21T00:51:06.136Z,8.40
2023-05-21T00:54:13.236Z,11.40
2023-05-21T00:57:23.794Z,11.45
2023-05-21T01:00:30.130Z,9.30
2023-05-21T01:03:39.770Z,15.10
2023-05-21T01:06:45.067Z,12.63
2023-05-21T01:09:52.323Z,14.68
2023-05-21T01:13:01.275Z,9.93
2023-05-21T01:16:07.881Z,14.77
2023-05-21T01:19:21.445Z,13.80
2023-05-21T01:22:30.076Z,13.13
2023-05-21T01:25:38.657Z,11.95
2023-05-21T01:28:45.272Z,15.68
2023-05-21T01:31:58.402Z,13.68
2023-05-21T01:35:12.538Z,11.35
2023-05-21T01:38:29.329Z,19.23
2023-05-21T01:41:40.454Z,13.15
2023-05-21T01:44:50.033Z,12.02
2023-05-21T01:47:57.601Z,12.90
2023-05-21T01:51:07.909Z,14.57
2023-05-21T01:54:16.078Z,12.57
2023-05-21T01:57:22.183Z,10.75
2023-05-21T02:00:29.777Z,17.75
2023-05-21T02:03:36.132Z,10.18
2023-05-21T02:06:45.448Z,10.85
2023-05-21T02:09:54.793Z,14.13
2023-05-21T02:13:01.997Z,11.38
2023-05-21T02:16:13.028Z,12.37
2023-05-21T02:19:20.360Z,13.62
2023-05-21T02:22:27.254Z,12.65
2023-05-21T02:25:34.476Z,12.52
2023-05-21T02:28:46.066Z,11.45
2023-05-21T02:31:52.742Z,11.55
2023-05-21T02:35:00.142Z,11.43
2023-05-21T02:38:06.500Z,14.80
2023-05-21T02:41:14.604Z,11.65
2023-05-21T02:44:23.465Z,14.38
2023-05-21T02:47:30.722Z,14.63
2023-05-21T02:50:40.601Z,11.20
2023-05-21T02:53:50.277Z,12.30
2023-05-21T02:56:56.784Z,12.63
2023-05-21T03:00:05.211Z,11.93
2023-05-21T03:03:15.892Z,15.25
2023-05-21T03:06:21.945Z,13.55
2023-05-21T03:09:30.122Z,13.85
2023-05-21T03:12:37.980Z,13.43
2023-05-21T03:15:45.655Z,17.65
2023-05-21T03:18:53.708Z,12.48
2023-05-21T03:22:01.014Z,11.38
2023-05-21T03:25:12.117Z,14.90
2023-05-21T03:28:20.279Z,11.85
2023-05-21T03:31:29.822Z,14.98
2023-05-21T03:34:36.266Z,12.30
2023-05-21T03:37:44.065Z,13.43
2023-05-21T03:40:51.548Z,13.93
2023-05-21T03:43:58.809Z,13.77
2023-05-21T03:47:04.881Z,18.75
2023-05-21T03:50:13.880Z,12.40
2023-05-21T03:53:18.761Z,13.43
2023-05-21T03:56:28.138Z,13.77
2023-05-21T03:59:35.117Z,13.32
2023-05-21T04:02:45.409Z,15.38
2023-05-21T04:05:53.520Z,13.48
2023-05-21T04:08:58.878Z,15.90
2023-05-21T04:12:05.210Z,13.30
2023-05-21T04:15:14.822Z,12.32
2023-05-21T04:18:21.797Z,12.32
2023-05-21T04:21:27.095Z,14.07
2023-05-21T04:24:35.827Z,11.98
2023-05-21T04:27:48.816Z,15.27
2023-05-21T04:30:57.832Z,14.82
2023-05-21T04:34:06.635Z,13.05
2023-05-21T04:37:15.211Z,14.30
2023-05-21T04:40:25.858Z,13.88
2023-05-21T04:43:36.034Z,11.05
2023-05-21T04:46:43.056Z,11.88
2023-05-21T04:49:51.911Z,11.27
2023-05-21T04:52:59.912Z,13.77
2023-05-21T04:56:08.826Z,17.50
2023-05-21T04:59:15.489Z,10.77
2023-05-21T05:02:22.418Z,9.27
2023-05-21T05:05:29.003Z,11.05
2023-05-21T05:08:36.685Z,10.85
2023-05-21T05:11:42.061Z,11.57
2023-05-21T05:14:49.030Z,7.32
2023-05-21T05:17:55.982Z,8.50
2023-05-21T05:21:04.540Z,7.50
2023-05-21T05:24:10.971Z,6.87
2023-05-21T05:27:19.975Z,6.45
2023-05-21T05:30:25.588Z,8.02
2023-05-21T05:33:34.143Z,10.02
2023-05-21T05:36:40.695Z,7.07
2023-05-21T05:39:48.803Z,5.47
2023-05-21T05:42:55.234Z,10.40
2023-05-21T05:46:02.441Z,9.02
2023-05-21T05:49:08.581Z,5.87
2023-05-21T05:52:15.704Z,6.72
2023-05-21T05:55:22.499Z,8.45
2023-05-21T05:58:32.514Z,6.65
2023-05-21T06:01:41.226Z,6.40
2023-05-21T06:04:49.145Z,10.15
2023-05-21T06:07:58.259Z,7.95
2023-05-21T06:11:08.554Z,8.70
2023-05-21T06:14:15.578Z,10.73
2023-05-21T06:17:22.185Z,13.10
2023-05-21T06:20:29.175Z,8.15
2023-05-21T06:23:37.887Z,5.35
2023-05-21T06:26:44.434Z,9.00
2023-05-21T06:29:51.960Z,10.10
2023-05-21T06:32:58.406Z,5.65
2023-05-21T06:36:06.134Z,9.82
2023-05-21T06:39:12.591Z,8.20
2023-05-21T06:42:20.100Z,7.40
2023-05-21T06:45:31.166Z,7.47
2023-05-21T06:48:37.738Z,7.20
2023-05-21T06:51:43.835Z,7.40
2023-05-21T06:54:49.693Z,9.63
2023-05-21T06:57:55.621Z,6.62
2023-05-21T07:01:03.892Z,7.55
2023-05-21T07:04:11.107Z,6.45
2023-05-21T07:07:17.135Z,6.62
2023-05-21T07:10:23.036Z,5.93
2023-05-21T07:13:31.535Z,5.45
2023-05-21T07:16:38.407Z,5.60
2023-05-21T07:19:46.725Z,6.20
2023-05-21T07:22:53.178Z,8.75
2023-05-21T07:25:59.350Z,6.25
2023-05-21T07:29:05.345Z,6.10
2023-05-21T07:32:13.249Z,6.62
2023-05-21T07:35:17.559Z,6.82
2023-05-21T07:38:24.108Z,5.37
2023-05-21T07:41:30.980Z,4.97
2023-05-21T07:44:37.750Z,6.62
2023-05-21T07:47:45.509Z,6.85
2023-05-21T07:50:54.411Z,10.63
2023-05-21T07:54:02.186Z,8.50
2023-05-21T07:57:10.367Z,9.20
2023-05-21T08:00:17.341Z,10.75
2023-05-21T08:03:28.999Z,9.35
2023-05-21T08:06:35.956Z,10.63
2023-05-21T08:09:46.368Z,4.07
2023-05-21T08:12:53.530Z,6.78
2023-05-21T08:16:01.015Z,3.43
2023-05-21T08:19:08.916Z,5.45
2023-05-21T08:22:15.686Z,3.75
2023-05-21T08:25:21.341Z,7.72
2023-05-21T08:28:29.522Z,6.57
2023-05-21T08:34:40.007Z,4.78
2023-05-21T08:37:45.915Z,3.30
2023-05-21T08:40:54.027Z,9.50
2023-05-21T08:44:02.612Z,10.57
2023-05-21T08:50:16.672Z,5.75
2023-05-21T08:53:29.014Z,4.55
2023-05-21T08:56:33.824Z,5.35
2023-05-21T08:59:43.364Z,6.15
2023-05-21T09:02:49.077Z,6.30
2023-05-21T09:05:55.888Z,5.82
2023-05-21T09:09:12.560Z,5.10
2023-05-21T09:12:18.101Z,4.55
2023-05-21T09:15:22.818Z,5.28
2023-05-21T09:18:28.935Z,5.57
2023-05-21T09:21:34.157Z,7.30
2023-05-21T09:24:40.871Z,5.45
2023-05-21T09:27:45.010Z,6.85
2023-05-21T09:30:54.008Z,6.53
2023-05-21T09:33:58.792Z,6.47
2023-05-21T09:37:06.515Z,4.75
2023-05-21T09:40:20.326Z,4.37
2023-05-21T09:43:26.971Z,5.18
2023-05-21T09:46:41.901Z,7.85
2023-05-21T09:49:47.534Z,7.53
2023-05-21T09:52:53.420Z,5.62
2023-05-21T09:55:59.098Z,6.30
2023-05-21T09:59:07.239Z,5.03
2023-05-21T10:02:21.499Z,5.05
2023-05-21T10:05:29.358Z,4.07
2023-05-21T10:08:38.826Z,6.22
2023-05-21T10:11:47.625Z,9.75
2023-05-21T10:14:59.439Z,6.53
2023-05-21T10:18:05.800Z,6.07
2023-05-21T10:21:11.357Z,5.30
2023-05-21T10:24:17.382Z,7.90
2023-05-21T10:27:23.128Z,4.78
2023-05-21T10:30:28.032Z,6.87
2023-05-21T10:33:34.589Z,5.90
2023-05-21T10:36:40.976Z,4.20
2023-05-21T10:39:46.722Z,6.03
2023-05-21T10:42:51.864Z,7.60
2023-05-21T10:46:17.252Z,3.95
2023-05-21T10:50:09.701Z,5.75
2023-05-21T10:53:25.778Z,9.10
2023-05-21T10:56:40.124Z,9.75
2023-05-21T10:59:46.977Z,6.60
2023-05-21T11:02:53.689Z,4.30
2023-05-21T11:05:58.686Z,3.95
2023-05-21T11:09:21.005Z,7.20
2023-05-21T11:12:26.702Z,6.03
2023-05-21T11:15:30.705Z,12.23
2023-05-21T11:18:40.070Z,4.45
2023-05-21T11:21:51.622Z,6.22
2023-05-21T11:25:01.897Z,3.75
2023-05-21T11:28:09.925Z,5.07
2023-05-21T11:31:27.853Z,7.05
2023-05-21T11:34:40.598Z,3.33
2023-05-21T11:37:54.076Z,6.22
2023-05-21T11:41:03.487Z,4.93
2023-05-21T11:44:09.139Z,5.10
2023-05-21T11:47:15.684Z,4.10
2023-05-21T11:50:20.085Z,5.35
2023-05-21T11:53:26.099Z,5.65
2023-05-21T11:56:33.704Z,3.10
2023-05-21T11:59:38.373Z,5.35
2023-05-21T12:02:51.924Z,4.43
2023-05-21T12:06:06.500Z,5.75
2023-05-21T12:09:11.596Z,5.12
2023-05-21T12:12:18.856Z,12.95
2023-05-21T12:15:23.028Z,5.68
2023-05-21T12:18:27.488Z,5.32
2023-05-21T12:21:32.437Z,5.70
2023-05-21T12:24:37.873Z,6.22
2023-05-21T12:27:42.780Z,6.45
2023-05-21T12:30:46.994Z,5.70
2023-05-21T12:33:55.064Z,10.48
2023-05-21T12:37:00.550Z,7.50
2023-05-21T12:40:08.589Z,11.68
2023-05-21T12:43:14.684Z,4.28
2023-05-21T12:46:20.014Z,8.30
2023-05-21T12:49:40.237Z,4.53
2023-05-21T12:52:45.488Z,7.10
2023-05-21T12:55:51.976Z,7.10
2023-05-21T12:58:57.728Z,7.70
2023-05-21T13:02:05.099Z,10.10
2023-05-21T13:05:20.660Z,7.62
2023-05-21T13:08:25.417Z,3.60
2023-05-21T13:11:30.751Z,5.87
2023-05-21T13:14:36.439Z,4.75
2023-05-21T13:17:42.152Z,7.75
2023-05-21T13:20:47.537Z,3.80
2023-05-21T13:23:52.598Z,7.70
2023-05-21T13:26:59.292Z,6.10
2023-05-21T13:30:07.759Z,4.95
2023-05-21T13:33:15.267Z,9.23
2023-05-21T13:36:19.956Z,3.95
2023-05-21T13:39:28.173Z,4.30
2023-05-21T13:42:33.470Z,6.03
2023-05-21T13:45:39.629Z,9.23
2023-05-21T13:48:43.424Z,6.35
2023-05-21T13:51:46.782Z,6.15
2023-05-21T13:54:50.582Z,7.10
2023-05-21T13:57:54.400Z,7.07
2023-05-21T14:00:57.409Z,4.37
2023-05-21T14:04:04.595Z,9.95
2023-05-21T14:07:09.150Z,7.53
2023-05-21T14:10:14.407Z,8.88
2023-05-21T14:13:20.230Z,7.72
2023-05-21T14:16:28.260Z,3.85
2023-05-21T14:19:32.636Z,3.87
2023-05-21T14:22:36.112Z,4.12
2023-05-21T14:25:40.655Z,6.85
2023-05-21T14:28:47.045Z,8.43
2023-05-21T14:31:52.829Z,5.70
2023-05-21T14:35:00.687Z,9.18
2023-05-21T14:38:06.195Z,5.03
2023-05-21T14:41:13.347Z,5.00
2023-05-21T14:44:19.231Z,6.05
2023-05-21T14:47:24.122Z,7.32
2023-05-21T14:50:28.850Z,9.65
2023-05-21T14:53:35.165Z,5.93
2023-05-21T14:56:40.550Z,6.57
2023-05-21T14:59:46.847Z,6.30
2023-05-21T15:02:52.979Z,10.48
2023-05-21T15:06:00.172Z,7.93
2023-05-21T15:09:04.864Z,6.75
2023-05-21T15:12:09.945Z,4.95
2023-05-21T15:15:15.405Z,7.87
2023-05-21T15:18:20.512Z,6.37
2023-05-21T15:21:27.888Z,7.68
2023-05-21T15:24:34.529Z,5.93
2023-05-21T15:27:38.518Z,7.85
2023-05-21T15:30:43.854Z,5.45
2023-05-21T15:33:48.388Z,5.93
2023-05-21T15:36:55.548Z,6.47
2023-05-21T15:40:00.647Z,9.73
2023-05-21T15:43:08.439Z,6.68
2023-05-21T15:46:14.378Z,8.00
2023-05-21T15:49:20.479Z,5.68
2023-05-21T15:52:24.083Z,7.35
2023-05-21T15:55:27.899Z,5.37
2023-05-21T15:58:32.537Z,8.82
2023-05-21T16:01:38.796Z,5.82
2023-05-21T16:04:44.019Z,10.85
2023-05-21T16:07:48.010Z,5.15
2023-05-21T16:10:51.133Z,8.52
2023-05-21T16:13:55.059Z,8.48
2023-05-21T16:17:00.355Z,5.90
2023-05-21T16:20:05.370Z,6.20
2023-05-21T16:23:12.600Z,6.87
2023-05-21T16:26:17.947Z,5.32
2023-05-21T16:29:23.445Z,8.18
2023-05-21T16:32:28.821Z,6.72
2023-05-21T16:35:34.489Z,5.80
2023-05-21T16:38:39.671Z,6.97
2023-05-21T16:41:47.183Z,8.23
2023-05-21T16:44:52.284Z,7.65
2023-05-21T16:47:55.712Z,8.55
2023-05-21T16:50:59.220Z,7.32
2023-05-21T16:54:04.314Z,7.62
2023-05-21T16:57:11.890Z,4.90
2023-05-21T17:00:16.163Z,9.30
2023-05-21T17:03:19.259Z,9.15
2023-05-21T17:06:25.304Z,5.93
2023-05-21T17:09:31.943Z,8.25
2023-05-21T17:12:37.972Z,7.47
2023-05-21T17:15:42.414Z,7.22
2023-05-21T17:18:46.649Z,5.50
2023-05-21T17:21:54.442Z,6.45
2023-05-21T17:24:59.676Z,8.48
2023-05-21T17:28:03.187Z,6.30
2023-05-21T17:31:08.446Z,8.65
2023-05-21T17:34:12.584Z,9.90
2023-05-21T17:37:18.823Z,7.75
2023-05-21T17:40:26.631Z,13.13
2023-05-21T17:43:32.207Z,8.25
2023-05-21T17:46:38.097Z,11.55
2023-05-21T17:49:42.481Z,9.95
2023-05-21T17:52:46.705Z,9.48
2023-05-21T17:55:50.136Z,9.15
2023-05-21T17:58:53.448Z,11.40
2023-05-21T18:02:00.914Z,7.10
2023-05-21T18:05:06.350Z,7.55
2023-05-21T18:08:11.686Z,8.43
2023-05-21T18:11:16.887Z,7.78
2023-05-21T18:14:21.490Z,9.30
2023-05-21T18:17:26.521Z,12.10
2023-05-21T18:20:30.722Z,13.55
2023-05-21T18:23:35.850Z,6.60
2023-05-21T18:26:39.943Z,6.00
2023-05-21T18:29:43.851Z,10.32
2023-05-21T18:32:48.365Z,11.55
2023-05-21T18:35:52.412Z,7.75
2023-05-21T18:38:58.012Z,11.25
2023-05-21T18:42:13.031Z,9.07
2023-05-21T18:45:18.860Z,11.25
2023-05-21T18:48:23.790Z,8.13
2023-05-21T18:51:28.737Z,11.63
2023-05-21T18:54:34.222Z,9.35
2023-05-21T18:57:39.881Z,10.75
2023-05-21T19:00:44.681Z,9.50
2023-05-21T19:03:50.237Z,8.52
2023-05-21T19:06:55.609Z,13.02
2023-05-21T19:10:00.817Z,11.02
2023-05-21T19:13:06.558Z,10.10
2023-05-21T19:16:12.296Z,11.00
2023-05-21T19:19:18.693Z,14.38
2023-05-21T19:22:27.993Z,13.25
2023-05-21T19:25:33.724Z,11.25
2023-05-21T19:28:38.265Z,12.02
2023-05-21T19:31:42.993Z,15.13
2023-05-21T19:34:49.022Z,10.38
2023-05-21T19:38:00.618Z,13.65
2023-05-21T19:41:06.567Z,9.15
2023-05-21T19:44:12.355Z,11.95
2023-05-21T19:47:18.866Z,10.35
2023-05-21T19:50:25.049Z,9.95
2023-05-21T19:53:29.470Z,12.02
2023-05-21T19:56:34.328Z,12.45
2023-05-21T19:59:39.773Z,10.50
2023-05-21T20:02:46.659Z,11.32
2023-05-21T20:05:51.084Z,12.27
2023-05-21T20:08:54.401Z,15.30
2023-05-21T20:11:57.999Z,15.55
2023-05-21T20:15:01.228Z,13.15
2023-05-21T20:18:07.117Z,18.15
2023-05-21T20:21:11.490Z,18.10
2023-05-21T20:24:15.535Z,11.27
2023-05-21T20:27:20.218Z,10.77
2023-05-21T20:30:23.688Z,19.55
2023-05-21T20:33:28.190Z,20.08
2023-05-21T20:36:34.715Z,16.60
2023-05-21T20:39:38.663Z,12.80
2023-05-21T20:42:45.733Z,13.60
2023-05-21T20:45:50.265Z,17.87
2023-05-21T20:48:55.291Z,14.63
2023-05-21T20:52:01.308Z,15.60
2023-05-21T20:55:05.775Z,11.30
2023-05-21T20:58:09.662Z,9.77
2023-05-21T21:01:17.828Z,16.92
2023-05-21T21:04:23.089Z,11.45
2023-05-21T21:07:30.713Z,14.52
2023-05-21T21:10:34.374Z,13.98
2023-05-21T21:13:37.936Z,14.10
2023-05-21T21:16:42.580Z,15.63
2023-05-21T21:19:47.447Z,11.45
2023-05-21T21:22:51.097Z,13.20
2023-05-21T21:25:55.064Z,9.88
2023-05-21T21:28:59.968Z,16.98
2023-05-21T21:32:04.646Z,11.12
2023-05-21T21:35:10.358Z,17.50
2023-05-21T21:38:14.202Z,12.07
2023-05-21T21:41:17.934Z,12.02
2023-05-21T21:44:22.411Z,12.48
2023-05-21T21:47:26.278Z,11.43
2023-05-21T21:50:30.261Z,10.30
2023-05-21T21:53:34.883Z,9.65
2023-05-21T21:56:39.388Z,13.50
2023-05-21T21:59:43.670Z,9.80
2023-05-21T22:02:48.553Z,11.50
2023-05-21T22:05:54.533Z,10.18
2023-05-21T22:08:58.307Z,13.18
2023-05-21T22:12:07.859Z,9.63
2023-05-21T22:15:25.781Z,12.27
2023-05-21T22:18:39.570Z,9.03
2023-05-21T22:21:47.102Z,12.50
2023-05-21T22:24:53.674Z,9.50
2023-05-21T22:27:57.350Z,17.77
2023-05-21T22:31:01.709Z,12.60
2023-05-21T22:34:05.439Z,11.05
2023-05-21T22:37:10.125Z,8.48
2023-05-21T22:40:14.500Z,9.38
2023-05-21T22:43:18.719Z,15.68
2023-05-21T22:46:22.549Z,10.77
2023-05-21T22:49:27.066Z,8.00
2023-05-21T22:52:32.763Z,11.93
2023-05-21T22:55:37.825Z,8.15
2023-05-21T22:58:43.836Z,9.52
2023-05-21T23:01:51.458Z,10.45
2023-05-21T23:04:56.707Z,9.88
2023-05-21T23:08:01.667Z,8.73
2023-05-21T23:11:06.496Z,9.27
2023-05-21T23:14:11.010Z,6.95
2023-05-21T23:17:14.624Z,10.32
2023-05-21T23:20:18.927Z,8.32
2023-05-21T23:23:23.119Z,8.88
2023-05-21T23:26:29.180Z,14.18
2023-05-21T23:29:33.216Z,9.02
2023-05-21T23:32:37.938Z,9.02
2023-05-21T23:35:42.495Z,9.27
2023-05-21T23:38:47.285Z,8.88
2023-05-21T23:41:51.894Z,11.68
2023-05-21T23:44:56.111Z,9.65
2023-05-21T23:47:59.848Z,9.98
2023-05-21T23:51:04.668Z,9.63
2023-05-21T23:54:09.175Z,9.23
2023-05-21T23:57:14.156Z,12.23
